Boykin, South Carolina
Current Conditions -  °F | °C
As of 1:53 AM on Wednesday 26 Nov 2014 (Local Time) from KSSC Reporting Station
Moderate Rain Moderate Rain  
Wind Chill: 13°   Ceiling: 600
Heat Index: 13°   Visibility: 9mi
Dew Point: 12°   Wind: 10mph
Humidity: 94%   Direction: 360°N
Pressure: 29.85"   Gusts: NA
Location:  34.1106°N, 80.4967°W
Report Text: KSSC 260653Z AUTO 36009KT 9SM R04/5500FT RA OVC006 13/12 A2985 RMK AO2 OVC V BKN
Loading
Personal Weather Stations






























Interactive Weather Map New forecast layout! Learn more

10-Day Weather Forecast

Advertisements
Track Severe Weather on mobile